Time;durP1;ratioP1;P1;durP2;ratioP2;P2;SDS_P1;SDS_P2;PMS_P1;PMS_P2;Temp;Humidity;BMP_temperature;BMP_pressure;BME280_temperature;BME280_humidity;BME280_pressure;Samples;Min_cycle;Max_cycle;Signal;HPM_P1;HPM_P2
2023/06/24 00:01:22;;;;;;;5.00;3.50;;;16.40;1.00;;;;;;5053994;28;20095;-62
2023/06/24 00:03:48;;;;;;;5.95;4.10;;;16.50;30.80;;;;;;5054001;28;20049;-62
2023/06/24 00:06:18;;;;;;;5.97;4.50;;;16.80;1.00;;;;;;5035824;28;20480;-62
2023/06/24 00:08:47;;;;;;;8.80;3.92;;;16.50;1.00;;;;;;5053825;28;20090;-62
2023/06/24 00:11:13;;;;;;;9.35;5.10;;;16.50;1.00;;;;;;5052438;28;20049;-62
2023/06/24 00:13:40;;;;;;;8.63;3.83;;;16.30;99.90;;;;;;5053788;28;20131;-65
2023/06/24 00:16:06;;;;;;;6.13;3.42;;;16.40;99.90;;;;;;5053431;28;20033;-62
2023/06/24 00:18:33;;;;;;;6.07;4.38;;;16.40;99.90;;;;;;5053676;28;20119;-62
2023/06/24 00:20:58;;;;;;;6.50;4.05;;;16.30;99.90;;;;;;5053588;28;20120;-62
2023/06/24 00:23:26;;;;;;;8.45;4.07;;;16.30;99.90;;;;;;5053569;28;20083;-62
2023/06/24 00:25:54;;;;;;;5.80;3.90;;;16.30;83.90;;;;;;5051977;28;20032;-67
2023/06/24 00:28:20;;;;;;;6.40;4.30;;;16.30;99.90;;;;;;5052151;28;20055;-64
2023/06/24 00:30:46;;;;;;;7.43;3.85;;;16.30;1.00;;;;;;5051885;28;20108;-62
2023/06/24 00:33:13;;;;;;;11.25;4.05;;;16.30;99.90;;;;;;5052747;28;20037;-62
2023/06/24 00:35:39;;;;;;;8.13;5.25;;;16.20;1.00;;;;;;5052090;28;20048;-62
2023/06/24 00:38:05;;;;;;;5.40;3.97;;;16.10;99.90;;;;;;5052111;28;20040;-62
2023/06/24 00:40:32;;;;;;;8.05;5.03;;;16.20;73.40;;;;;;5053241;28;20041;-62
2023/06/24 00:42:58;;;;;;;6.10;4.25;;;16.20;99.90;;;;;;5052926;28;20044;-62
2023/06/24 00:45:24;;;;;;;6.97;4.13;;;16.20;99.90;;;;;;5053173;28;20069;-62
2023/06/24 00:47:51;;;;;;;6.85;4.20;;;16.10;99.90;;;;;;5051848;28;20045;-62
2023/06/24 00:50:17;;;;;;;5.85;3.90;;;16.10;99.90;;;;;;5051538;28;20045;-62
2023/06/24 00:52:43;;;;;;;6.90;4.50;;;16.10;1.00;;;;;;5051468;28;20045;-62
2023/06/24 00:55:12;;;;;;;7.50;4.43;;;16.10;99.90;;;;;;5051454;28;20056;-62
2023/06/24 00:57:42;;;;;;;7.07;5.07;;;16.10;1.00;;;;;;5034878;28;20095;-62
2023/06/24 01:00:14;;;;;;;6.55;4.90;;;16.60;99.90;;;;;;5051627;28;20036;-63
2023/06/24 01:02:42;;;;;;;6.28;4.75;;;16.10;86.50;;;;;;5051296;28;20071;-64
2023/06/24 01:05:08;;;;;;;9.73;5.22;;;16.10;99.90;;;;;;5052663;28;20048;-62
2023/06/24 01:07:36;;;;;;;6.55;4.47;;;16.00;99.90;;;;;;5052867;28;20029;-62
2023/06/24 01:10:06;;;;;;;6.75;4.65;;;16.00;99.90;;;;;;5051650;28;20064;-62
2023/06/24 01:12:40;;;;;;;7.10;4.18;;;16.00;99.90;;;;;;5034988;28;20059;-62
2023/06/24 01:15:07;;;;;;;5.22;4.07;;;16.10;84.00;;;;;;5052856;28;20041;-62
2023/06/24 01:17:44;;;;;;;8.63;4.57;;;15.90;1.00;;;;;;5052470;28;20045;-62
2023/06/24 01:20:20;;;;;;;6.90;4.50;;;15.90;1.00;;;;;;5052814;28;20492;-62
2023/06/24 01:23:29;;;;;;;8.32;4.65;;;15.80;99.90;;;;;;5052374;28;20057;-62
2023/06/24 01:26:13;;;;;;;6.15;4.38;;;15.70;99.90;;;;;;5038041;28;20053;-62
2023/06/24 01:28:50;;;;;;;6.07;4.40;;;16.80;1.00;;;;;;5052384;28;20032;-62
2023/06/24 01:31:39;;;;;;;7.93;4.88;;;15.70;99.90;;;;;;5051023;28;20435;-62
2023/06/24 01:34:13;;;;;;;6.55;4.80;;;15.70;99.90;;;;;;5052436;28;20044;-61
2023/06/24 01:36:44;;;;;;;5.65;4.15;;;15.70;99.90;;;;;;5052210;28;20124;-63
2023/06/24 01:39:13;;;;;;;7.13;4.65;;;15.90;99.90;;;;;;5052559;28;20431;-62
2023/06/24 01:41:42;;;;;;;6.63;4.22;;;15.90;99.90;;;;;;5051061;28;20559;-62
2023/06/24 01:44:12;;;;;;;5.55;3.88;;;15.60;99.90;;;;;;5053696;28;20048;-62
2023/06/24 01:46:40;;;;;;;6.35;4.20;;;15.60;99.90;;;;;;5056573;28;20033;-63
2023/06/24 01:49:11;;;;;;;7.40;4.35;;;15.70;99.90;;;;;;5056478;28;20427;-62
2023/06/24 01:51:40;;;;;;;7.45;4.03;;;15.60;99.90;;;;;;5054993;28;20045;-62
2023/06/24 01:54:11;;;;;;;8.98;4.75;;;15.70;99.90;;;;;;5054879;28;20154;-62
2023/06/24 01:56:37;;;;;;;;;;;15.60;99.90;;;;;;5055264;28;20055;-62
2023/06/24 01:59:04;;;;;;;10.38;4.47;;;15.50;1.00;;;;;;5056349;28;20008;-62
2023/06/24 02:01:33;;;;;;;5.25;3.47;;;15.50;99.90;;;;;;5056103;28;20049;-70
2023/06/24 02:04:01;;;;;;;6.07;4.15;;;15.50;99.90;;;;;;5070005;22;20399;-62
2023/06/24 02:06:29;;;;;;;6.68;3.85;;;15.50;99.90;;;;;;5056363;28;20044;-62
2023/06/24 02:08:58;;;;;;;6.68;3.97;;;16.40;99.90;;;;;;5056329;28;20037;-62
2023/06/24 02:11:26;;;;;;;7.07;4.57;;;15.50;99.90;;;;;;5054733;28;20044;-62
2023/06/24 02:13:54;;;;;;;4.65;3.25;;;16.10;99.90;;;;;;5056217;28;20403;-63
2023/06/24 02:16:20;;;;;;;6.15;3.55;;;15.40;99.90;;;;;;5056273;28;20092;-62
2023/06/24 02:18:48;;;;;;;6.93;3.85;;;15.40;1.00;;;;;;5054606;28;20059;-62
2023/06/24 02:21:17;;;;;;;7.10;4.07;;;15.40;1.00;;;;;;5056045;28;20037;-62
2023/06/24 02:23:44;;;;;;;7.22;3.67;;;15.40;99.90;;;;;;5054504;28;20041;-63
2023/06/24 02:26:10;;;;;;;5.75;3.70;;;15.40;99.90;;;;;;5054496;28;20377;-62
2023/06/24 02:28:38;;;;;;;6.88;3.95;;;15.40;99.90;;;;;;5054757;28;20080;-62
2023/06/24 02:31:05;;;;;;;5.47;3.80;;;15.40;99.90;;;;;;5037798;28;20045;-63
2023/06/24 02:33:31;;;;;;;5.43;4.07;;;15.30;99.90;;;;;;5055878;28;20396;-62
2023/06/24 02:35:57;;;;;;;5.13;3.55;;;15.30;99.90;;;;;;5055519;28;20063;-62
2023/06/24 02:38:23;;;;;;;7.70;3.78;;;15.30;99.90;;;;;;5055827;28;20037;-62
2023/06/24 02:40:49;;;;;;;7.18;4.60;;;15.20;1.00;;;;;;5055641;28;20077;-62
2023/06/24 02:43:16;;;;;;;6.75;4.05;;;15.20;1.00;;;;;;5055342;28;20045;-62
2023/06/24 02:45:42;;;;;;;6.57;3.17;;;15.20;99.90;;;;;;5055351;28;20123;-62
2023/06/24 02:48:09;;;;;;;7.05;4.47;;;15.20;1.00;;;;;;5054434;28;20120;-62
2023/06/24 02:50:37;;;;;;;5.22;3.85;;;15.20;1.00;;;;;;5053983;28;20051;-62
2023/06/24 02:53:04;;;;;;;7.20;4.25;;;15.10;1.00;;;;;;5055570;28;20112;-62
2023/06/24 02:55:32;;;;;;;6.78;4.15;;;15.10;1.00;;;;;;5053494;28;20048;-65
2023/06/24 02:57:58;;;;;;;5.60;3.65;;;15.10;1.00;;;;;;5055062;28;20044;-62
2023/06/24 03:00:24;;;;;;;5.72;3.85;;;15.10;1.00;;;;;;5053913;28;20091;-62
2023/06/24 03:02:50;;;;;;;6.30;3.97;;;15.10;1.00;;;;;;5055038;28;20056;-62
2023/06/24 03:05:16;;;;;;;4.68;3.38;;;15.10;1.00;;;;;;5055293;28;20396;-62
2023/06/24 03:07:42;;;;;;;6.50;3.90;;;15.10;1.00;;;;;;5055144;28;20045;-62
2023/06/24 03:10:10;;;;;;;6.38;3.50;;;15.10;1.00;;;;;;5054871;28;20041;-62
2023/06/24 03:12:36;;;;;;;7.38;4.20;;;15.20;99.90;;;;;;5055138;28;20456;-62
2023/06/24 03:15:02;;;;;;;4.28;3.35;;;15.50;99.90;;;;;;5054840;28;20041;-62
2023/06/24 03:17:28;;;;;;;7.05;3.67;;;15.30;99.90;;;;;;5055039;28;20049;-63
2023/06/24 03:19:53;;;;;;;6.63;4.00;;;15.30;99.90;;;;;;5053541;28;20040;-62
2023/06/24 03:22:19;;;;;;;8.60;3.72;;;15.80;99.90;;;;;;5054845;28;20495;-62
2023/06/24 03:24:45;;;;;;;5.05;3.92;;;15.40;99.90;;;;;;5054945;28;20086;-62
2023/06/24 03:27:10;;;;;;;4.95;3.60;;;15.40;99.90;;;;;;5054835;28;20120;-62
2023/06/24 03:29:36;;;;;;;4.28;3.22;;;15.30;1.00;;;;;;5054577;28;20120;-63
2023/06/24 03:32:02;;;;;;;5.72;3.75;;;15.40;99.90;;;;;;5054722;28;20037;-62
2023/06/24 03:34:27;;;;;;;8.10;4.25;;;15.40;99.90;;;;;;5054379;28;20072;-62
2023/06/24 03:36:54;;;;;;;10.90;3.72;;;15.40;1.00;;;;;;5053117;28;20131;-62
2023/06/24 03:39:20;;;;;;;5.03;3.08;;;15.40;99.90;;;;;;5054722;28;20490;-62
2023/06/24 03:41:46;;;;;;;5.97;3.63;;;15.40;99.90;;;;;;5054442;28;20041;-62
2023/06/24 03:44:12;;;;;;;5.70;3.42;;;15.50;99.90;;;;;;5052986;28;20407;-62
2023/06/24 03:46:37;;;;;;;4.72;3.63;;;15.50;99.90;;;;;;5054444;28;20037;-62
2023/06/24 03:49:03;;;;;;;5.88;4.25;;;15.50;99.90;;;;;;5054329;28;20106;-62
2023/06/24 03:51:29;;;;;;;5.25;3.90;;;15.60;99.90;;;;;;5054120;28;20477;-62
2023/06/24 03:53:54;;;;;;;4.65;3.47;;;15.50;1.00;;;;;;5053995;28;20500;-62
2023/06/24 03:56:20;;;;;;;4.97;3.72;;;15.60;99.90;;;;;;5054276;28;20045;-62
2023/06/24 03:58:45;;;;;;;4.88;3.53;;;15.60;99.90;;;;;;5054209;28;20036;-62
2023/06/24 04:01:11;;;;;;;4.57;3.83;;;16.30;24.40;;;;;;5053852;28;20553;-62
2023/06/24 04:03:37;;;;;;;4.65;3.28;;;15.60;1.00;;;;;;5053753;28;20057;-62
2023/06/24 04:06:02;;;;;;;5.82;3.45;;;15.70;99.90;;;;;;5054109;28;20399;-62
2023/06/24 04:08:31;;;;;;;7.75;3.65;;;15.70;99.90;;;;;;5052630;28;20044;-62
2023/06/24 04:10:59;;;;;;;4.75;3.17;;;15.80;99.90;;;;;;5054041;28;20072;-62
2023/06/24 04:13:25;;;;;;;4.47;3.30;;;15.70;1.00;;;;;;5053948;28;20037;-63
2023/06/24 04:15:51;;;;;;;7.00;3.60;;;15.80;99.90;;;;;;5053958;28;20395;-62
2023/06/24 04:18:17;;;;;;;8.43;3.92;;;15.80;1.00;;;;;;5053944;28;20448;-62
2023/06/24 04:20:42;;;;;;;7.32;3.97;;;15.80;99.90;;;;;;5053656;28;20107;-62
2023/06/24 04:23:10;;;;;;;6.10;3.88;;;15.90;99.90;;;;;;5053707;28;20048;-62
2023/06/24 04:25:36;;;;;;;4.70;3.45;;;16.40;1.00;;;;;;5053528;28;20052;-62
2023/06/24 04:28:04;;;;;;;5.20;3.22;;;15.90;99.90;;;;;;5053762;28;20044;-62
2023/06/24 04:30:31;;;;;;;5.82;3.35;;;16.00;1.00;;;;;;5053671;28;20119;-62
2023/06/24 04:32:56;;;;;;;4.88;3.70;;;16.00;99.90;;;;;;5052458;28;20092;-62
2023/06/24 04:35:22;;;;;;;3.88;3.05;;;16.40;99.90;;;;;;5053495;28;20072;-63
2023/06/24 04:37:50;;;;;;;6.85;3.90;;;16.20;99.90;;;;;;5053178;28;20476;-62
2023/06/24 04:40:19;;;;;;;6.68;4.20;;;16.20;99.90;;;;;;5053177;28;20041;-62
2023/06/24 04:42:45;;;;;;;6.30;4.18;;;16.30;99.90;;;;;;5053078;28;20052;-62
2023/06/24 04:45:11;;;;;;;4.15;3.03;;;16.30;1.00;;;;;;5053449;28;20536;-62
2023/06/24 04:47:36;;;;;;;7.38;3.72;;;16.40;1.00;;;;;;5052014;28;20120;-62
2023/06/24 04:50:03;;;;;;;7.28;4.25;;;16.50;99.90;;;;;;5053312;28;20043;-62
2023/06/24 04:52:28;;;;;;;4.90;3.65;;;16.50;99.90;;;;;;5053060;28;20067;-62
2023/06/24 04:54:54;;;;;;;9.00;4.22;;;17.10;1.00;;;;;;5052022;28;20048;-62
2023/06/24 04:57:24;;;;;;;7.25;3.95;;;16.60;99.90;;;;;;5053185;28;20499;-62
2023/06/24 04:59:50;;;;;;;7.93;4.25;;;16.70;99.90;;;;;;5053209;28;20084;-62
2023/06/24 05:02:15;;;;;;;8.98;4.10;;;16.80;99.90;;;;;;5051639;28;20508;-63
2023/06/24 05:04:41;;;;;;;5.28;3.55;;;16.80;99.90;;;;;;5052603;28;20124;-62
2023/06/24 05:07:07;;;;;;;6.45;4.45;;;16.90;99.90;;;;;;5053076;28;20040;-62
2023/06/24 05:09:32;;;;;;;5.75;3.70;;;17.00;1.00;;;;;;5052912;28;20044;-62
2023/06/24 05:11:58;;;;;;;6.13;4.00;;;17.10;1.00;;;;;;5052986;28;20051;-62
2023/06/24 05:14:23;;;;;;;4.97;3.60;;;17.20;1.00;;;;;;5052587;28;20511;-70
2023/06/24 05:16:49;;;;;;;12.52;4.45;;;17.50;1.00;;;;;;5052997;28;20032;-62
2023/06/24 05:19:16;;;;;;;5.85;4.28;;;17.50;99.90;;;;;;5052625;28;20044;-65
2023/06/24 05:21:41;;;;;;;6.75;4.20;;;17.40;99.90;;;;;;5051279;28;20124;-62
2023/06/24 05:24:07;;;;;;;7.30;3.92;;;17.50;99.90;;;;;;5051638;28;20220;-62
2023/06/24 05:26:33;;;;;;;4.22;2.75;;;17.50;99.90;;;;;;5052886;28;20077;-67
2023/06/24 05:28:58;;;;;;;5.20;3.42;;;17.70;99.90;;;;;;5052898;28;20033;-62
2023/06/24 05:31:24;;;;;;;4.60;3.63;;;17.70;99.90;;;;;;5052783;28;20058;-62
2023/06/24 05:33:49;;;;;;;6.05;3.83;;;18.10;99.90;;;;;;5052808;28;20047;-62
2023/06/24 05:36:15;;;;;;;4.97;3.67;;;18.10;99.90;;;;;;5051195;28;20420;-62
2023/06/24 05:38:40;;;;;;;5.60;3.72;;;18.00;99.90;;;;;;5052655;28;20083;-62
2023/06/24 05:41:06;;;;;;;8.07;4.40;;;18.20;99.90;;;;;;5052629;28;20107;-63
2023/06/24 05:43:32;;;;;;;5.25;3.30;;;18.20;99.90;;;;;;5052655;28;20083;-62
2023/06/24 05:45:57;;;;;;;5.40;3.60;;;18.30;99.90;;;;;;5052668;28;20072;-62
2023/06/24 05:48:23;;;;;;;6.65;3.88;;;18.50;99.90;;;;;;5052698;28;20383;-62
2023/06/24 05:50:48;;;;;;;4.82;3.38;;;18.50;99.90;;;;;;5052566;28;20033;-62
2023/06/24 05:53:14;;;;;;;6.15;4.30;;;18.80;99.90;;;;;;5052586;28;20487;-63
2023/06/24 05:55:39;;;;;;;8.85;3.92;;;18.80;99.90;;;;;;5052511;28;20072;-63
2023/06/24 05:58:05;;;;;;;3.85;3.05;;;18.90;99.90;;;;;;5052558;28;20044;-63
2023/06/24 06:00:31;;;;;;;5.03;3.40;;;19.00;99.90;;;;;;5052508;28;20033;-62
2023/06/24 06:02:56;;;;;;;5.57;3.15;;;19.10;99.90;;;;;;5052215;28;20061;-62
2023/06/24 06:05:22;;;;;;;10.27;3.53;;;19.30;99.90;;;;;;5052487;28;20087;-62
2023/06/24 06:07:48;;;;;;;5.15;3.65;;;19.40;99.90;;;;;;5052532;28;20033;-62
2023/06/24 06:10:17;;;;;;;5.97;3.10;;;19.50;99.90;;;;;;5052399;28;20079;-63
2023/06/24 06:12:43;;;;;;;6.80;3.55;;;20.00;94.20;;;;;;5052417;28;20051;-62
2023/06/24 06:15:09;;;;;;;6.25;3.60;;;19.70;75.80;;;;;;5052304;28;20365;-62
2023/06/24 06:17:35;;;;;;;6.32;3.80;;;19.70;56.90;;;;;;5051997;28;20041;-62
2023/06/24 06:20:00;;;;;;;4.45;3.13;;;19.70;59.00;;;;;;5052309;28;20476;-63
2023/06/24 06:22:26;;;;;;;5.72;4.07;;;19.90;60.90;;;;;;5052180;28;20041;-63
2023/06/24 06:24:51;;;;;;;5.78;3.50;;;20.10;32.00;;;;;;5052407;28;20044;-63
2023/06/24 06:27:17;;;;;;;6.07;3.53;;;20.10;39.90;;;;;;5052321;28;20040;-63
2023/06/24 06:29:43;;;;;;;4.63;3.45;;;20.30;31.00;;;;;;5051871;28;20069;-66
2023/06/24 06:32:08;;;;;;;4.57;3.42;;;20.40;21.20;;;;;;5054739;28;20077;-65
2023/06/24 06:34:34;;;;;;;4.72;3.10;;;20.50;16.20;;;;;;5055816;28;20049;-62
2023/06/24 06:37:00;;;;;;;6.05;3.20;;;20.70;11.20;;;;;;5055706;28;20071;-62
2023/06/24 06:39:26;;;;;;;5.18;3.10;;;20.70;7.50;;;;;;5055423;28;20472;-62
2023/06/24 06:41:52;;;;;;;6.00;3.30;;;20.80;1.00;;;;;;5054301;28;20091;-62
2023/06/24 06:44:18;;;;;;;4.32;3.22;;;20.80;1.00;;;;;;5055711;28;20480;-62
2023/06/24 06:46:43;;;;;;;4.43;3.25;;;21.00;1.00;;;;;;5055688;28;20036;-62
2023/06/24 06:49:09;;;;;;;5.40;3.05;;;21.10;1.00;;;;;;5055608;28;20033;-62
2023/06/24 06:51:34;;;;;;;7.28;2.80;;;21.20;1.00;;;;;;5055195;28;20051;-62
2023/06/24 06:54:00;;;;;;;3.08;2.53;;;21.30;1.00;;;;;;5055531;28;20493;-62
2023/06/24 06:56:26;;;;;;;3.55;2.45;;;21.50;1.00;;;;;;5055392;28;20490;-62
2023/06/24 06:58:52;;;;;;;5.50;3.38;;;21.50;1.00;;;;;;5055078;28;20121;-62
2023/06/24 07:01:18;;;;;;;5.60;3.47;;;21.70;1.00;;;;;;5055313;28;20075;-62
2023/06/24 07:03:44;;;;;;;6.68;3.30;;;21.80;1.00;;;;;;5054919;28;20065;-70
2023/06/24 07:06:10;;;;;;;5.57;2.97;;;21.90;1.00;;;;;;5037359;28;20041;-67
2023/06/24 07:08:35;;;;;;;4.90;3.03;;;22.10;1.00;;;;;;5053944;28;20112;-66
2023/06/24 07:11:02;;;;;;;5.40;3.53;;;22.10;1.00;;;;;;5055204;28;20088;-67
2023/06/24 07:13:27;;;;;;;5.55;3.95;;;22.20;1.00;;;;;;5055476;28;20041;-67
2023/06/24 07:15:53;;;;;;;6.00;3.58;;;22.30;1.00;;;;;;5054721;28;20041;-66
2023/06/24 07:18:19;;;;;;;6.88;3.10;;;22.30;1.00;;;;;;5054956;28;20044;-66
2023/06/24 07:20:44;;;;;;;4.55;3.38;;;22.40;1.00;;;;;;5054977;28;20424;-67
2023/06/24 07:23:10;;;;;;;5.38;3.10;;;22.40;1.00;;;;;;5054577;28;20047;-66
2023/06/24 07:25:36;;;;;;;5.45;2.90;;;22.50;1.00;;;;;;5054802;28;20332;-66
2023/06/24 07:28:02;;;;;;;6.53;3.25;;;22.70;1.00;;;;;;5054479;28;20140;-66
2023/06/24 07:30:27;;;;;;;5.03;3.58;;;23.20;1.00;;;;;;5054756;28;20124;-66
2023/06/24 07:32:53;;;;;;;5.53;3.03;;;23.10;1.00;;;;;;5054803;28;20075;-66
2023/06/24 07:35:19;;;;;;;4.55;2.85;;;23.30;1.00;;;;;;5054793;28;20524;-66
2023/06/24 07:37:45;;;;;;;5.97;3.55;;;23.50;1.00;;;;;;5054378;28;20071;-67
2023/06/24 07:40:10;;;;;;;5.30;3.80;;;23.70;1.00;;;;;;5054677;28;20049;-70
2023/06/24 07:42:36;;;;;;;5.13;2.90;;;23.80;1.00;;;;;;5054235;28;20029;-71
2023/06/24 07:45:02;;;;;;;6.63;2.90;;;23.90;1.00;;;;;;5036334;28;20127;-68
2023/06/24 07:47:27;;;;;;;5.05;3.05;;;23.90;1.00;;;;;;5052852;28;20045;-67
2023/06/24 07:49:53;;;;;;;5.80;3.35;;;24.20;1.00;;;;;;5054322;28;20468;-67
2023/06/24 07:52:19;;;;;;;6.50;3.00;;;23.90;1.00;;;;;;5054273;28;20072;-67
2023/06/24 07:54:44;;;;;;;3.80;2.80;;;23.90;1.00;;;;;;5053790;28;20094;-67
2023/06/24 07:57:10;;;;;;;5.05;2.80;;;23.90;1.00;;;;;;5054141;28;20036;-67
2023/06/24 07:59:36;;;;;;;4.47;2.75;;;23.80;1.00;;;;;;5054166;28;20451;-67
2023/06/24 08:02:02;;;;;;;5.03;3.00;;;23.80;1.00;;;;;;5054039;28;20056;-67
2023/06/24 08:04:27;;;;;;;5.35;2.83;;;23.80;1.00;;;;;;5053623;28;20500;-67
2023/06/24 08:06:53;;;;;;;6.43;2.85;;;23.70;1.00;;;;;;5053723;28;20048;-67
2023/06/24 08:09:19;;;;;;;8.45;3.17;;;23.80;1.00;;;;;;5053568;28;20041;-66
2023/06/24 08:11:44;;;;;;;3.88;2.47;;;23.70;1.00;;;;;;5053854;28;20098;-67
2023/06/24 08:14:10;;;;;;;3.92;2.35;;;23.40;1.00;;;;;;5052812;28;20040;-67
2023/06/24 08:16:36;;;;;;;4.50;2.63;;;23.70;1.00;;;;;;5053806;28;20041;-67
2023/06/24 08:19:01;;;;;;;6.10;2.97;;;23.70;1.00;;;;;;5053779;28;20476;-67
2023/06/24 08:21:27;;;;;;;3.58;2.55;;;23.70;1.00;;;;;;5035481;28;20052;-67
2023/06/24 08:23:52;;;;;;;5.95;2.70;;;23.80;1.00;;;;;;5053838;28;20191;-67
2023/06/24 08:26:21;;;;;;;6.20;2.70;;;23.80;1.00;;;;;;5053716;28;20029;-67
2023/06/24 08:28:47;;;;;;;4.53;3.03;;;23.90;1.00;;;;;;5052145;28;20077;-67
2023/06/24 08:31:13;;;;;;;4.50;2.40;;;23.90;1.00;;;;;;5053659;28;20396;-67
2023/06/24 08:33:43;;;;;;;4.95;2.80;;;24.00;1.00;;;;;;5053541;28;20045;-67
2023/06/24 08:36:08;;;;;;;6.35;2.17;;;24.10;1.00;;;;;;5053229;28;20044;-68
2023/06/24 08:38:34;;;;;;;4.13;2.55;;;24.60;1.00;;;;;;5053482;28;20044;-67
2023/06/24 08:41:00;;;;;;;3.83;2.05;;;24.30;1.00;;;;;;5052179;28;20091;-67
2023/06/24 08:43:25;;;;;;;3.40;2.33;;;24.40;1.00;;;;;;5051872;28;20171;-67
2023/06/24 08:45:51;;;;;;;6.47;2.65;;;24.50;1.00;;;;;;5052122;28;20037;-67
2023/06/24 08:48:19;;;;;;;4.32;2.38;;;24.60;1.00;;;;;;5053372;28;20079;-67
2023/06/24 08:50:50;;;;;;;5.47;2.50;;;24.60;1.00;;;;;;5053286;28;20090;-67
2023/06/24 08:53:19;;;;;;;4.10;2.45;;;25.00;1.00;;;;;;5052889;28;20103;-67
2023/06/24 08:55:46;;;;;;;5.28;2.83;;;24.90;1.00;;;;;;5052775;28;20040;-66
2023/06/24 08:58:13;;;;;;;3.78;2.42;;;24.90;1.00;;;;;;5053195;28;20412;-67
2023/06/24 09:00:39;;;;;;;4.65;2.42;;;24.90;1.00;;;;;;5053173;28;20033;-67
2023/06/24 09:03:05;;;;;;;4.53;2.35;;;25.80;1.00;;;;;;5052616;28;20052;-66
2023/06/24 09:05:30;;;;;;;5.00;1.73;;;25.00;1.00;;;;;;5053035;28;20039;-67
2023/06/24 09:07:56;;;;;;;4.82;2.33;;;25.10;1.00;;;;;;5053070;28;20029;-67
2023/06/24 09:10:34;;;;;;;4.75;1.92;;;25.10;1.00;;;;;;5051608;28;20045;-67
2023/06/24 09:13:05;;;;;;;3.83;1.45;;;25.30;1.00;;;;;;5052806;28;20041;-67
2023/06/24 09:15:38;;;;;;;3.38;1.75;;;25.20;1.00;;;;;;5053072;28;20116;-66
2023/06/24 09:18:04;;;;;;;3.03;1.42;;;26.00;1.00;;;;;;5052653;28;20087;-67
2023/06/24 09:20:32;;;;;;;3.90;1.48;;;25.60;1.00;;;;;;5053007;28;20108;-66
2023/06/24 09:22:59;;;;;;;2.80;1.63;;;25.60;1.00;;;;;;5052862;28;20041;-67
2023/06/24 09:25:25;;;;;;;3.38;1.80;;;25.70;1.00;;;;;;5052950;28;20048;-67
2023/06/24 09:27:55;;;;;;;2.25;1.48;;;25.70;1.00;;;;;;5052825;28;20362;-67
2023/06/24 09:30:21;;;;;;;;;;;25.70;1.00;;;;;;5053418;28;20103;-66
2023/06/24 09:32:52;;;;;;;5.20;2.22;;;25.80;1.00;;;;;;5052870;28;20383;-64
2023/06/24 09:35:21;;;;;;;2.60;1.60;;;25.70;1.00;;;;;;5052574;28;20048;-64
2023/06/24 09:37:54;;;;;;;3.75;1.85;;;25.90;1.00;;;;;;5051507;28;20128;-64
2023/06/24 09:40:20;;;;;;;3.33;2.20;;;25.80;1.00;;;;;;5052848;28;20044;-65
2023/06/24 09:42:53;;;;;;;3.33;1.83;;;25.80;1.00;;;;;;5052404;28;20048;-67
2023/06/24 09:45:23;;;;;;;7.93;2.15;;;25.90;1.00;;;;;;5052772;28;20499;-68
2023/06/24 09:47:49;;;;;;;2.60;1.70;;;25.90;1.00;;;;;;5052625;28;20044;-64
2023/06/24 09:50:15;;;;;;;2.92;1.88;;;26.00;1.00;;;;;;5052650;28;20037;-64
2023/06/24 09:52:44;;;;;;;3.25;1.85;;;26.00;1.00;;;;;;5052667;28;20029;-64
2023/06/24 09:55:11;;;;;;;3.35;2.05;;;26.10;1.00;;;;;;5052406;28;20048;-64
2023/06/24 09:57:38;;;;;;;3.78;2.15;;;26.10;1.00;;;;;;5052541;28;20087;-64
2023/06/24 10:00:05;;;;;;;3.28;2.33;;;25.90;1.00;;;;;;5052662;28;20515;-64
2023/06/24 10:02:32;;;;;;;4.45;2.75;;;25.90;1.00;;;;;;5051048;28;20091;-64
2023/06/24 10:05:00;;;;;;;3.13;2.10;;;25.90;1.00;;;;;;5052628;28;20044;-64
2023/06/24 10:07:27;;;;;;;2.75;1.85;;;25.80;1.00;;;;;;5037770;28;20052;-64
2023/06/24 10:09:53;;;;;;;3.00;1.95;;;25.50;1.00;;;;;;5054880;28;20102;-64
2023/06/24 10:12:19;;;;;;;2.83;1.70;;;25.40;1.00;;;;;;5056012;28;20045;-64
2023/06/24 10:14:45;;;;;;;2.22;1.50;;;25.50;1.00;;;;;;5054716;28;20403;-64
2023/06/24 10:17:12;;;;;;;2.72;1.58;;;25.50;1.00;;;;;;5055914;28;20041;-64
2023/06/24 10:19:41;;;;;;;3.65;1.65;;;25.50;1.00;;;;;;5056152;28;20086;-64
2023/06/24 10:22:10;;;;;;;2.40;1.60;;;25.50;1.00;;;;;;5056071;28;20480;-64
2023/06/24 10:24:39;;;;;;;2.35;1.63;;;25.60;1.00;;;;;;5056088;28;20044;-66
2023/06/24 10:27:18;;;;;;;5.07;1.20;;;25.70;1.00;;;;;;5056108;28;20051;-67
2023/06/24 10:29:48;;;;;;;1.83;1.30;;;25.80;1.00;;;;;;5056467;28;20068;-66
2023/06/24 10:32:14;;;;;;;2.47;1.40;;;25.90;1.00;;;;;;5055953;28;20036;-66
2023/06/24 10:34:42;;;;;;;3.00;2.00;;;26.00;1.00;;;;;;5055554;28;20044;-67
2023/06/24 10:37:11;;;;;;;2.25;1.55;;;26.00;1.00;;;;;;5055890;28;20067;-68
2023/06/24 10:39:54;;;;;;;3.77;1.80;;;26.00;1.00;;;;;;5055862;28;20044;-66
2023/06/24 10:42:28;;;;;;;3.58;1.63;;;26.10;1.00;;;;;;5055634;28;20075;-66
2023/06/24 10:44:59;;;;;;;2.83;1.80;;;26.10;1.00;;;;;;5054158;28;20496;-68
2023/06/24 10:47:26;;;;;;;2.60;1.55;;;26.10;1.00;;;;;;5054165;28;20502;-66
2023/06/24 10:49:52;;;;;;;3.90;2.15;;;26.20;1.00;;;;;;5055388;28;20041;-67
2023/06/24 10:52:22;;;;;;;2.63;1.48;;;26.30;1.00;;;;;;5055638;28;20048;-67
2023/06/24 10:54:49;;;;;;;5.25;3.15;;;26.40;1.00;;;;;;5054015;28;20044;-66
2023/06/24 10:57:15;;;;;;;2.67;1.35;;;26.50;1.00;;;;;;5055464;28;20092;-67
2023/06/24 10:59:47;;;;;;;3.42;1.67;;;26.80;1.00;;;;;;5055375;28;20068;-67
2023/06/24 11:02:17;;;;;;;4.90;1.60;;;26.70;1.00;;;;;;5055038;28;20037;-67
2023/06/24 11:04:44;;;;;;;3.78;1.58;;;26.80;1.00;;;;;;5053706;28;20167;-67
2023/06/24 11:07:10;;;;;;;2.50;1.58;;;26.90;1.00;;;;;;5055340;28;20388;-67
2023/06/24 11:09:36;;;;;;;3.58;1.67;;;26.90;1.00;;;;;;5055239;28;20033;-66
2023/06/24 11:12:05;;;;;;;3.30;1.60;;;26.80;1.00;;;;;;5054978;28;20037;-67
2023/06/24 11:14:33;;;;;;;3.05;1.58;;;26.70;1.00;;;;;;5054869;28;20052;-67
2023/06/24 11:17:02;;;;;;;2.90;1.90;;;26.70;1.00;;;;;;5054635;28;20095;-67
2023/06/24 11:19:27;;;;;;;2.60;1.60;;;26.80;1.00;;;;;;5053796;28;20400;-67
2023/06/24 11:21:53;;;;;;;3.10;1.70;;;26.90;1.00;;;;;;5053397;28;20045;-67
2023/06/24 11:24:18;;;;;;;2.28;1.30;;;27.00;1.00;;;;;;5054950;28;20029;-67
2023/06/24 11:26:45;;;;;;;3.22;2.00;;;26.90;1.00;;;;;;5053297;28;20053;-67
2023/06/24 11:29:11;;;;;;;3.47;1.70;;;26.70;1.00;;;;;;5053739;28;20557;-67
2023/06/24 11:31:37;;;;;;;2.10;1.63;;;27.10;1.00;;;;;;5054849;28;20037;-67
2023/06/24 11:34:04;;;;;;;1.92;1.40;;;27.20;1.00;;;;;;5054718;28;20348;-67
2023/06/24 11:36:30;;;;;;;2.80;1.83;;;27.10;1.00;;;;;;5054718;28;20488;-67
2023/06/24 11:38:55;;;;;;;2.90;1.85;;;27.00;1.00;;;;;;5054642;28;20108;-68
2023/06/24 11:41:21;;;;;;;3.08;2.08;;;27.00;1.00;;;;;;5054290;28;20040;-67
2023/06/24 11:43:47;;;;;;;2.75;1.58;;;27.20;1.00;;;;;;5053099;28;20110;-69
2023/06/24 11:46:33;;;;;;;2.78;1.77;;;27.00;1.00;;;;;;5054539;28;20037;-65
2023/06/24 11:49:06;;;;;;;2.50;2.00;;;27.20;1.00;;;;;;5053043;28;20115;-65
2023/06/24 11:51:32;;;;;;;3.72;1.70;;;27.10;1.00;;;;;;5054180;28;20037;-65
2023/06/24 11:54:05;;;;;;;9.13;2.20;;;27.00;1.00;;;;;;5054759;28;20124;-65
2023/06/24 11:56:39;;;;;;;2.00;1.58;;;26.70;1.00;;;;;;5052846;28;20044;-65
2023/06/24 11:59:05;;;;;;;2.70;1.77;;;26.80;1.00;;;;;;5054374;28;20052;-65
2023/06/24 12:01:39;;;;;;;2.20;1.67;;;26.90;1.00;;;;;;5054232;28;20037;-65
2023/06/24 12:04:13;;;;;;;2.78;1.95;;;26.80;1.00;;;;;;5053941;28;20504;-66
2023/06/24 12:06:43;;;;;;;2.40;1.65;;;26.60;1.00;;;;;;5053849;28;20045;-65
2023/06/24 12:09:09;;;;;;;2.20;1.50;;;26.60;1.00;;;;;;5053856;28;20047;-65
2023/06/24 12:11:35;;;;;;;2.45;1.83;;;26.70;1.00;;;;;;5053761;28;20032;-65
2023/06/24 12:14:00;;;;;;;4.68;2.30;;;26.70;1.00;;;;;;5054109;28;20041;-65
2023/06/24 12:16:26;;;;;;;2.38;1.50;;;27.00;1.00;;;;;;5053988;28;20076;-65
2023/06/24 12:18:52;;;;;;;2.40;1.25;;;27.20;1.00;;;;;;5052297;28;20045;-65
2023/06/24 12:21:18;;;;;;;3.47;1.75;;;27.50;1.00;;;;;;5053310;28;20144;-65
2023/06/24 12:23:44;;;;;;;1.83;1.45;;;27.70;1.00;;;;;;5053346;28;20102;-65
2023/06/24 12:26:12;;;;;;;2.20;1.80;;;28.00;1.00;;;;;;5053523;28;20127;-65
2023/06/24 12:28:37;;;;;;;2.58;1.67;;;27.90;1.00;;;;;;5052687;28;20462;-65
2023/06/24 12:31:03;;;;;;;2.53;1.63;;;27.80;1.00;;;;;;5052221;28;20128;-65
2023/06/24 12:33:29;;;;;;;2.35;1.60;;;27.70;1.00;;;;;;5051894;28;20048;-65
2023/06/24 12:35:55;;;;;;;4.43;1.77;;;27.90;1.00;;;;;;5053495;28;20032;-65
2023/06/24 12:38:20;;;;;;;3.30;1.90;;;28.00;1.00;;;;;;5053340;28;20043;-65
2023/06/24 12:40:47;;;;;;;2.65;1.73;;;27.90;1.00;;;;;;5053256;28;20055;-65
2023/06/24 12:43:14;;;;;;;3.22;1.92;;;27.90;1.00;;;;;;5053091;28;20056;-65
2023/06/24 12:45:43;;;;;;;2.90;1.95;;;27.90;1.00;;;;;;5053502;28;20123;-65
2023/06/24 12:48:09;;;;;;;3.20;2.10;;;27.80;1.00;;;;;;5051979;28;20404;-65
2023/06/24 12:50:34;;;;;;;3.95;1.88;;;27.80;1.00;;;;;;5053427;28;20037;-65
2023/06/24 12:53:00;;;;;;;1.98;1.63;;;27.90;1.00;;;;;;5053141;28;20037;-65